Time;durP1;ratioP1;P1;durP2;ratioP2;P2;SDS_P1;SDS_P2;PMS_P1;PMS_P2;Temp;Humidity;BMP_temperature;BMP_pressure;BME280_temperature;BME280_humidity;BME280_pressure;Samples;Min_cycle;Max_cycle;Signal;HPM_P1;HPM_P2
2023/09/07 00:00:56;;;;;;;69.87;54.80;;;21.60;99.90;;;;;;5092311;28;20521;-85
2023/09/07 00:03:24;;;;;;;35.03;31.53;;;21.50;99.90;;;;;;5103657;28;20464;-85
2023/09/07 00:05:53;;;;;;;24.47;21.63;;;21.50;99.90;;;;;;5114349;28;20489;-85
2023/09/07 00:08:30;;;;;;;19.23;17.23;;;21.50;99.90;;;;;;5115471;28;20548;-85
2023/09/07 00:11:03;;;;;;;14.80;13.27;;;21.40;99.90;;;;;;5117962;27;20551;-84
2023/09/07 00:13:35;;;;;;;14.07;12.77;;;21.40;99.90;;;;;;5136178;27;20456;-85
2023/09/07 00:16:03;;;;;;;12.07;10.87;;;21.40;99.90;;;;;;5135626;27;20821;-85
2023/09/07 00:18:31;;;;;;;10.80;9.70;;;21.40;99.90;;;;;;5135967;27;20775;-84
2023/09/07 00:20:58;;;;;;;10.40;9.40;;;21.40;99.90;;;;;;5134881;27;20475;-85
2023/09/07 00:23:25;;;;;;;9.53;8.73;;;21.30;99.90;;;;;;5133629;27;20460;-85
2023/09/07 00:25:58;;;;;;;9.10;8.20;;;21.30;99.90;;;;;;5124023;27;20816;-85
2023/09/07 00:28:25;;;;;;;8.60;7.90;;;21.30;99.90;;;;;;5135334;27;20458;-85
2023/09/07 00:30:55;;;;;;;8.33;7.63;;;21.30;99.90;;;;;;5133896;27;20479;-84
2023/09/07 00:33:27;;;;;;;7.57;6.97;;;21.30;99.90;;;;;;5134621;27;20460;-84
2023/09/07 00:35:54;;;;;;;7.43;6.83;;;21.20;99.90;;;;;;5126236;27;20468;-85
2023/09/07 00:38:21;;;;;;;7.93;7.27;;;21.20;99.90;;;;;;5133621;27;20460;-86
2023/09/07 00:40:48;;;;;;;7.40;6.70;;;21.20;99.90;;;;;;5134375;27;20471;-85
2023/09/07 00:43:15;;;;;;;8.23;7.53;;;21.20;99.90;;;;;;5134634;27;20470;-83
2023/09/07 00:45:44;;;;;;;8.07;7.37;;;21.20;99.90;;;;;;5135453;27;20476;-84
2023/09/07 00:48:18;;;;;;;7.57;6.97;;;21.20;99.90;;;;;;5087745;28;20461;-85
2023/09/07 00:51:16;;;;;;;7.73;7.03;;;21.20;99.90;;;;;;5110142;28;20476;-84
2023/09/07 00:53:45;;;;;;;7.30;6.70;;;21.10;99.90;;;;;;5126571;28;20461;-84
2023/09/07 00:56:13;;;;;;;7.57;6.97;;;21.10;99.90;;;;;;5125367;28;20844;-83
2023/09/07 00:58:41;;;;;;;7.60;7.00;;;21.10;99.90;;;;;;5125797;28;20494;-84
2023/09/07 01:01:10;;;;;;;6.97;6.37;;;21.10;99.90;;;;;;5121009;28;20547;-83
2023/09/07 01:03:38;;;;;;;7.17;6.57;;;21.10;99.90;;;;;;5116823;28;20461;-85
2023/09/07 01:06:17;;;;;;;7.20;6.60;;;21.00;99.90;;;;;;5111903;28;20560;-85
2023/09/07 01:08:47;;;;;;;7.13;6.63;;;21.00;99.90;;;;;;5114124;28;20492;-85
2023/09/07 01:11:17;;;;;;;8.03;7.43;;;21.00;99.90;;;;;;5113277;28;20467;-85
2023/09/07 01:13:45;;;;;;;6.87;6.27;;;21.00;99.90;;;;;;5113839;28;20471;-85
2023/09/07 01:16:16;;;;;;;8.07;7.50;;;21.00;99.90;;;;;;5112895;28;20460;-83
2023/09/07 01:18:47;;;;;;;8.10;7.40;;;21.00;99.90;;;;;;5113899;28;20473;-85
2023/09/07 01:21:21;;;;;;;7.50;6.90;;;21.00;99.90;;;;;;5113661;28;20972;-84
2023/09/07 01:23:50;;;;;;;6.90;6.40;;;21.00;99.90;;;;;;5118682;28;20482;-84
2023/09/07 01:26:18;;;;;;;8.50;7.80;;;21.00;99.90;;;;;;5123718;28;20970;-84
2023/09/07 01:28:46;;;;;;;45.80;41.13;;;20.90;99.90;;;;;;5112916;28;20772;-84
2023/09/07 01:31:15;;;;;;;28.70;25.63;;;21.00;99.90;;;;;;5103878;28;20571;-85
2023/09/07 01:33:41;;;;;;;17.97;16.17;;;21.00;99.90;;;;;;5112270;28;20969;-84
2023/09/07 01:36:10;;;;;;;14.30;13.00;;;21.00;99.90;;;;;;5113159;28;20464;-84
2023/09/07 01:38:41;;;;;;;416.90;368.63;;;21.00;99.90;;;;;;5113021;28;20472;-84
2023/09/07 01:41:13;;;;;;;273.43;243.83;;;20.90;99.90;;;;;;5113455;28;20851;-83
2023/09/07 01:43:40;;;;;;;59.23;52.47;;;21.00;99.90;;;;;;5102165;28;20488;-85
2023/09/07 01:46:33;;;;;;;34.23;30.83;;;20.90;99.90;;;;;;5102229;28;20478;-85
2023/09/07 01:49:04;;;;;;;20.50;18.60;;;21.00;99.90;;;;;;5086986;28;20471;-85
2023/09/07 01:51:37;;;;;;;14.67;13.27;;;21.00;99.90;;;;;;5112986;28;20876;-85
2023/09/07 01:54:05;;;;;;;12.87;11.67;;;21.00;99.90;;;;;;5113068;28;20806;-85
2023/09/07 01:56:33;;;;;;;10.07;9.10;;;21.00;99.90;;;;;;5113554;28;20559;-85
2023/09/07 01:59:03;;;;;;;8.47;7.87;;;21.00;99.90;;;;;;5091935;28;20820;-84
2023/09/07 02:01:36;;;;;;;8.00;7.40;;;21.00;99.90;;;;;;5114048;28;20966;-84
2023/09/07 02:04:03;;;;;;;8.20;7.50;;;20.90;99.90;;;;;;5116938;27;20499;-84
2023/09/07 02:06:33;;;;;;;6.93;6.40;;;20.90;99.90;;;;;;5117877;28;20492;-85
2023/09/07 02:09:00;;;;;;;7.00;6.50;;;20.90;99.90;;;;;;5105631;28;20981;-84
2023/09/07 02:11:31;;;;;;;8.00;7.30;;;20.90;99.90;;;;;;5117049;28;20560;-84
2023/09/07 02:13:59;;;;;;;6.73;6.13;;;20.80;99.90;;;;;;5116836;28;20816;-85
2023/09/07 02:16:27;;;;;;;8.27;7.57;;;20.80;99.90;;;;;;5115760;28;20477;-85
2023/09/07 02:19:02;;;;;;;8.50;7.80;;;20.80;99.90;;;;;;5116702;28;20460;-85
2023/09/07 02:21:30;;;;;;;7.30;6.70;;;20.80;99.90;;;;;;5117006;28;20487;-85
2023/09/07 02:23:57;;;;;;;6.90;6.40;;;20.80;99.90;;;;;;5117157;28;20468;-84
2023/09/07 02:26:24;;;;;;;8.43;7.80;;;20.70;99.90;;;;;;5107839;28;20468;-84
2023/09/07 02:28:59;;;;;;;9.07;8.37;;;20.70;99.90;;;;;;5117254;28;20484;-85
2023/09/07 02:31:30;;;;;;;8.80;8.10;;;20.70;99.90;;;;;;5098638;28;20459;-82
2023/09/07 02:33:58;;;;;;;8.87;8.17;;;20.60;99.90;;;;;;5115903;28;20460;-85
2023/09/07 02:36:25;;;;;;;7.80;7.10;;;20.70;99.90;;;;;;5115980;28;20544;-86
2023/09/07 02:38:52;;;;;;;8.20;7.40;;;20.70;99.90;;;;;;5116827;28;20465;-85
2023/09/07 02:41:21;;;;;;;7.93;7.23;;;20.60;99.90;;;;;;5116003;28;20529;-85
2023/09/07 02:43:48;;;;;;;8.30;7.60;;;20.60;99.90;;;;;;5116590;28;20476;-86
2023/09/07 02:46:16;;;;;;;7.57;6.87;;;20.60;99.90;;;;;;5120294;27;20517;-85
2023/09/07 02:48:44;;;;;;;7.70;7.00;;;20.60;99.90;;;;;;5115791;28;20812;-85
2023/09/07 02:51:11;;;;;;;7.90;7.20;;;20.60;99.90;;;;;;5116592;28;20498;-85
2023/09/07 02:53:38;;;;;;;15.87;14.37;;;20.60;99.90;;;;;;5116619;28;20465;-85
2023/09/07 02:56:07;;;;;;;9.77;8.83;;;20.50;99.90;;;;;;5115500;27;20529;-85
2023/09/07 02:58:36;;;;;;;9.10;8.30;;;20.50;99.90;;;;;;5116223;28;20484;-82
2023/09/07 03:01:09;;;;;;;9.60;8.70;;;20.50;99.90;;;;;;5114598;28;20525;-85
2023/09/07 03:03:36;;;;;;;8.37;7.57;;;20.50;99.90;;;;;;5116207;28;20543;-85
2023/09/07 03:06:11;;;;;;;7.10;6.50;;;20.50;99.90;;;;;;5115735;28;20573;-85
2023/09/07 03:08:38;;;;;;;7.97;7.27;;;20.50;99.90;;;;;;5117114;28;20799;-85
2023/09/07 03:11:37;;;;;;;7.43;6.73;;;20.50;99.90;;;;;;5115885;28;20512;-85
2023/09/07 03:14:05;;;;;;;9.20;8.30;;;20.50;99.90;;;;;;5115962;28;20464;-85
2023/09/07 03:16:32;;;;;;;10.40;9.53;;;20.50;99.90;;;;;;5116378;28;20546;-84
2023/09/07 03:19:03;;;;;;;8.90;8.10;;;20.50;99.90;;;;;;5115522;28;20798;-85
2023/09/07 03:21:32;;;;;;;7.60;7.10;;;20.40;99.90;;;;;;5116319;28;20550;-85
2023/09/07 03:24:02;;;;;;;8.03;7.33;;;20.40;99.90;;;;;;5116059;28;20469;-84
2023/09/07 03:26:43;;;;;;;7.67;6.97;;;20.40;99.90;;;;;;5116946;28;20461;-85
2023/09/07 03:29:10;;;;;;;7.23;6.53;;;20.40;99.90;;;;;;5115271;28;20484;-85
2023/09/07 03:31:37;;;;;;;7.10;6.57;;;20.40;99.90;;;;;;5115841;28;20961;-85
2023/09/07 03:34:05;;;;;;;7.60;7.10;;;20.40;99.90;;;;;;5116135;28;20980;-85
2023/09/07 03:36:34;;;;;;;5.97;5.53;;;20.40;99.90;;;;;;5117644;27;20763;-85
2023/09/07 03:39:07;;;;;;;8.03;7.33;;;20.40;99.90;;;;;;5120440;28;20503;-84
2023/09/07 03:41:34;;;;;;;8.43;7.83;;;20.40;99.90;;;;;;5125760;28;20489;-84
2023/09/07 03:44:01;;;;;;;6.90;6.40;;;20.40;99.90;;;;;;5124288;28;20488;-85
2023/09/07 03:46:28;;;;;;;7.53;6.33;;;20.40;99.90;;;;;;5122921;28;20515;-84
2023/09/07 03:48:58;;;;;;;7.53;6.93;;;20.30;99.90;;;;;;5119440;28;20471;-85
2023/09/07 03:51:26;;;;;;;8.10;7.30;;;20.30;99.90;;;;;;5116464;28;20465;-85
2023/09/07 03:53:55;;;;;;;7.80;7.20;;;20.30;99.90;;;;;;5115490;28;20954;-85
2023/09/07 03:56:22;;;;;;;7.03;6.43;;;20.30;99.90;;;;;;5114363;28;20483;-85
2023/09/07 03:58:49;;;;;;;8.17;7.43;;;20.30;99.90;;;;;;5115326;28;20500;-85
2023/09/07 04:01:20;;;;;;;8.23;7.53;;;20.20;99.90;;;;;;5094776;28;20477;-85
2023/09/07 04:03:48;;;;;;;7.50;6.80;;;20.20;99.90;;;;;;5114309;28;20467;-85
2023/09/07 04:06:15;;;;;;;7.50;7.00;;;20.20;99.90;;;;;;5114635;28;20456;-85
2023/09/07 04:08:42;;;;;;;7.10;6.60;;;20.20;99.90;;;;;;5115759;27;20472;-85
2023/09/07 04:11:12;;;;;;;8.00;7.40;;;20.20;99.90;;;;;;5114684;28;20970;-85
2023/09/07 04:13:41;;;;;;;7.50;6.90;;;20.20;99.90;;;;;;5115252;28;20476;-85
2023/09/07 04:16:10;;;;;;;8.03;7.33;;;20.10;99.90;;;;;;5114691;28;20494;-85
2023/09/07 04:18:38;;;;;;;8.30;7.70;;;20.10;99.90;;;;;;5114769;28;20492;-85
2023/09/07 04:21:12;;;;;;;8.70;8.00;;;20.10;99.90;;;;;;5114842;28;20472;-85
2023/09/07 04:23:42;;;;;;;9.10;8.30;;;20.10;99.90;;;;;;5113947;28;20472;-85
2023/09/07 04:26:15;;;;;;;8.23;7.40;;;20.10;99.90;;;;;;5099441;28;21034;-84
2023/09/07 04:28:42;;;;;;;13.03;10.07;;;20.10;99.90;;;;;;5084702;28;20489;-84
2023/09/07 04:31:09;;;;;;;10.13;9.10;;;20.00;99.90;;;;;;5094232;28;20469;-84
2023/09/07 04:33:36;;;;;;;10.83;9.83;;;20.00;99.90;;;;;;5093840;28;20493;-83
2023/09/07 04:36:13;;;;;;;9.73;8.83;;;20.00;99.90;;;;;;5093841;28;20485;-83
2023/09/07 04:38:44;;;;;;;14.83;10.40;;;20.00;99.90;;;;;;5093618;28;20477;-83
2023/09/07 04:41:13;;;;;;;13.60;12.20;;;20.00;99.90;;;;;;5093310;28;20465;-84
2023/09/07 04:43:44;;;;;;;10.50;9.57;;;20.00;99.90;;;;;;5093424;28;20821;-83
2023/09/07 04:46:11;;;;;;;10.70;9.83;;;20.10;99.90;;;;;;5094373;28;21047;-83
2023/09/07 04:48:38;;;;;;;10.07;9.07;;;20.00;99.90;;;;;;5093188;28;20769;-83
2023/09/07 04:51:07;;;;;;;10.33;9.43;;;20.10;99.90;;;;;;5093834;28;20523;-83
2023/09/07 04:53:38;;;;;;;10.13;9.13;;;20.00;99.90;;;;;;5093098;28;20531;-83
2023/09/07 04:56:06;;;;;;;9.77;8.97;;;20.00;99.90;;;;;;5093496;28;20465;-84
2023/09/07 04:58:34;;;;;;;7.90;7.27;;;20.10;99.90;;;;;;5093646;28;20466;-85
2023/09/07 05:01:08;;;;;;;11.63;9.60;;;20.10;99.90;;;;;;5093481;28;20481;-85
2023/09/07 05:03:35;;;;;;;11.60;10.13;;;20.10;99.90;;;;;;5091383;28;20530;-85
2023/09/07 05:06:03;;;;;;;9.13;8.33;;;20.10;99.90;;;;;;5092362;28;20564;-84
2023/09/07 05:08:31;;;;;;;10.20;9.20;;;20.10;99.90;;;;;;5079492;28;20480;-84
2023/09/07 05:10:59;;;;;;;12.23;9.03;;;20.10;99.90;;;;;;5075937;28;20557;-85
2023/09/07 05:13:26;;;;;;;9.33;8.50;;;20.10;99.90;;;;;;5083689;28;20462;-83
2023/09/07 05:16:02;;;;;;;8.77;8.07;;;20.10;99.90;;;;;;5093432;28;20565;-83
2023/09/07 05:18:32;;;;;;;10.97;9.87;;;20.10;99.90;;;;;;5094024;28;20947;-84
2023/09/07 05:20:59;;;;;;;11.00;10.00;;;20.10;99.90;;;;;;5093280;28;20523;-84
2023/09/07 05:23:26;;;;;;;13.17;11.87;;;20.10;99.90;;;;;;5093282;28;20472;-84
2023/09/07 05:25:57;;;;;;;12.57;11.47;;;20.10;99.90;;;;;;5092035;28;20482;-84
2023/09/07 05:28:25;;;;;;;11.50;10.40;;;20.10;99.90;;;;;;5079477;28;20480;-84
2023/09/07 05:30:52;;;;;;;11.20;10.20;;;20.10;99.90;;;;;;5092509;28;20475;-84
2023/09/07 05:33:26;;;;;;;11.13;9.97;;;20.20;99.90;;;;;;5084970;28;20465;-83
2023/09/07 05:36:03;;;;;;;10.47;9.30;;;20.20;99.90;;;;;;5072763;28;20488;-84
2023/09/07 05:45:27;;;;;;;16.17;9.50;;;20.20;99.90;;;;;;4943494;29;20572;-83
2023/09/07 05:47:55;;;;;;;10.87;9.80;;;20.20;99.90;;;;;;5017770;28;20836;-84
2023/09/07 05:50:32;;;;;;;9.47;8.67;;;20.20;99.90;;;;;;5093898;28;20477;-84
2023/09/07 05:53:05;;;;;;;10.33;9.40;;;20.20;99.90;;;;;;5097504;28;20798;-84
2023/09/07 05:55:36;;;;;;;8.67;7.87;;;20.20;99.90;;;;;;5096736;28;20541;-84
2023/09/07 05:58:22;;;;;;;9.77;8.70;;;20.30;99.90;;;;;;5078814;28;20536;-84
2023/09/07 06:01:03;;;;;;;11.33;9.10;;;20.30;99.90;;;;;;5092996;28;20810;-84
2023/09/07 06:03:33;;;;;;;8.53;7.80;;;20.40;99.90;;;;;;5073689;28;20458;-84
2023/09/07 06:06:02;;;;;;;8.83;7.90;;;20.40;99.90;;;;;;5094217;28;20469;-84
2023/09/07 06:11:32;;;;;;;10.63;9.60;;;20.50;99.90;;;;;;5094732;28;20464;-84
2023/09/07 06:14:00;;;;;;;9.77;8.43;;;20.50;99.90;;;;;;5096896;28;20523;-84
2023/09/07 06:16:29;;;;;;;10.10;9.37;;;20.60;99.90;;;;;;5097068;28;20532;-84
2023/09/07 06:18:56;;;;;;;9.07;8.20;;;20.60;99.90;;;;;;5096155;28;20473;-84
2023/09/07 06:21:30;;;;;;;11.67;10.67;;;20.70;99.90;;;;;;5097547;28;20533;-84
2023/09/07 06:23:59;;;;;;;11.43;8.97;;;20.70;99.90;;;;;;5095852;28;20470;-84
2023/09/07 06:26:27;;;;;;;13.33;10.60;;;20.70;99.90;;;;;;5096442;28;20474;-84
2023/09/07 06:28:54;;;;;;;11.17;9.93;;;20.80;99.90;;;;;;5096184;28;20556;-83
2023/09/07 06:31:21;;;;;;;11.67;10.40;;;20.80;99.90;;;;;;5096468;28;20527;-85
2023/09/07 06:33:50;;;;;;;10.57;9.57;;;20.90;99.90;;;;;;5096134;28;20469;-85
2023/09/07 06:36:30;;;;;;;12.20;11.10;;;20.90;99.90;;;;;;5096717;28;20469;-85
2023/09/07 06:39:04;;;;;;;16.87;15.07;;;20.90;99.90;;;;;;5096321;28;20525;-85
2023/09/07 06:41:35;;;;;;;15.80;14.40;;;20.90;99.90;;;;;;5096520;28;20970;-84
2023/09/07 06:44:26;;;;;;;13.00;11.80;;;20.90;99.90;;;;;;5097391;28;20469;-85
2023/09/07 06:47:05;;;;;;;11.10;9.90;;;21.00;99.90;;;;;;5058587;28;20457;-82
2023/09/07 06:49:39;;;;;;;13.00;10.47;;;21.00;99.90;;;;;;5090696;28;20540;-84
2023/09/07 06:52:33;;;;;;;8.87;8.07;;;21.10;99.90;;;;;;5078104;28;20978;-84
2023/09/07 06:55:06;;;;;;;9.73;8.80;;;21.20;99.90;;;;;;5569590;22;20635;-84
2023/09/07 06:57:35;;;;;;;15.33;10.13;;;21.30;99.90;;;;;;5075354;28;20473;-85
2023/09/07 07:00:05;;;;;;;16.33;9.43;;;21.30;99.90;;;;;;5107712;28;20466;-84
2023/09/07 07:02:50;;;;;;;13.40;9.23;;;21.40;99.90;;;;;;5075973;28;20596;-84
2023/09/07 07:05:26;;;;;;;12.63;8.77;;;21.40;99.90;;;;;;5087245;28;20469;-85
2023/09/07 07:08:13;;;;;;;11.50;10.50;;;21.50;99.90;;;;;;5095901;28;20559;-84
2023/09/07 07:10:50;;;;;;;13.17;10.80;;;21.60;99.90;;;;;;5090191;28;20488;-85
2023/09/07 07:13:25;;;;;;;11.93;9.53;;;21.70;99.90;;;;;;5093848;28;20462;-85
2023/09/07 07:15:52;;;;;;;9.97;9.00;;;21.80;99.90;;;;;;5095224;28;20851;-85
2023/09/07 07:18:20;;;;;;;10.57;9.60;;;21.90;99.90;;;;;;5094054;28;20470;-84
2023/09/07 07:20:48;;;;;;;13.43;7.80;;;22.00;99.90;;;;;;5083249;28;20471;-85
2023/09/07 07:23:19;;;;;;;23.00;9.50;;;22.00;99.90;;;;;;5096285;28;20461;-85
2023/09/07 07:25:55;;;;;;;9.70;8.80;;;22.10;99.90;;;;;;5083911;28;20484;-86
2023/09/07 07:28:38;;;;;;;8.63;7.73;;;22.20;99.90;;;;;;5094433;28;20469;-84
2023/09/07 07:31:13;;;;;;;8.47;7.70;;;22.30;99.90;;;;;;5084154;28;20538;-84
2023/09/07 07:33:42;;;;;;;11.03;7.43;;;22.40;99.90;;;;;;5094099;28;20441;-84
2023/09/07 07:36:11;;;;;;;9.33;8.43;;;22.40;99.90;;;;;;5085038;28;20510;-84
2023/09/07 07:38:41;;;;;;;9.20;7.20;;;22.50;99.90;;;;;;5093411;28;20496;-83
2023/09/07 07:41:08;;;;;;;10.70;8.00;;;22.60;99.90;;;;;;5095008;28;20531;-85
2023/09/07 07:43:35;;;;;;;8.07;6.60;;;22.70;99.90;;;;;;5093923;28;20469;-85
2023/09/07 07:46:02;;;;;;;8.33;7.13;;;22.80;99.90;;;;;;5094835;28;20512;-84
2023/09/07 07:48:29;;;;;;;7.37;6.77;;;22.80;99.90;;;;;;5092981;28;20469;-84
2023/09/07 07:51:11;;;;;;;9.87;8.93;;;22.90;99.90;;;;;;5095174;28;20461;-85
2023/09/07 07:53:40;;;;;;;7.63;5.83;;;23.00;99.90;;;;;;5080154;28;20467;-84
2023/09/07 07:56:07;;;;;;;8.67;7.90;;;23.10;99.90;;;;;;5076745;28;20461;-86
2023/09/07 07:58:37;;;;;;;8.20;7.40;;;23.20;99.90;;;;;;5092862;28;20505;-85
2023/09/07 08:01:17;;;;;;;13.53;12.17;;;23.30;99.90;;;;;;5083436;28;20473;-86
2023/09/07 08:03:51;;;;;;;11.70;10.50;;;23.30;99.90;;;;;;5093391;28;20480;-85
2023/09/07 08:06:21;;;;;;;9.93;9.20;;;23.40;99.90;;;;;;5094379;28;20467;-84
2023/09/07 08:08:49;;;;;;;6.93;6.10;;;23.40;99.90;;;;;;5093248;28;20979;-84
2023/09/07 08:11:21;;;;;;;7.80;7.10;;;23.40;99.90;;;;;;5093373;28;20471;-85
2023/09/07 08:13:50;;;;;;;10.40;9.50;;;23.50;99.90;;;;;;5094127;28;20465;-85
2023/09/07 08:19:51;;;;;;;13.07;11.83;;;23.60;99.90;;;;;;5093120;28;20576;-85
2023/09/07 08:22:19;;;;;;;13.23;11.93;;;23.70;99.90;;;;;;5093962;28;21023;-84
2023/09/07 08:24:49;;;;;;;13.50;12.30;;;23.70;99.90;;;;;;5083059;28;20484;-85
2023/09/07 08:27:18;;;;;;;13.70;12.40;;;23.80;99.90;;;;;;5093165;28;20787;-85
2023/09/07 08:29:49;;;;;;;9.43;8.53;;;23.80;99.90;;;;;;5093263;28;20511;-84
2023/09/07 08:32:17;;;;;;;9.87;8.93;;;23.90;99.90;;;;;;5094240;28;20722;-85
2023/09/07 08:34:46;;;;;;;10.03;9.20;;;23.90;99.90;;;;;;5092919;28;20469;-85
2023/09/07 08:37:20;;;;;;;8.87;8.17;;;24.00;99.90;;;;;;5093649;28;20468;-85
2023/09/07 08:39:51;;;;;;;8.63;6.67;;;24.10;99.90;;;;;;5092814;28;20472;-85
2023/09/07 08:42:23;;;;;;;7.60;6.10;;;24.20;99.90;;;;;;5093809;28;20470;-85
2023/09/07 08:45:07;;;;;;;7.10;6.40;;;24.20;99.90;;;;;;5073852;28;20508;-85
2023/09/07 08:47:38;;;;;;;9.90;7.00;;;24.40;99.90;;;;;;5091393;28;20484;-85
2023/09/07 08:50:08;;;;;;;6.03;5.53;;;24.50;99.90;;;;;;5093604;28;21326;-85
2023/09/07 08:52:42;;;;;;;12.03;7.47;;;24.60;99.90;;;;;;5079201;28;20466;-86
2023/09/07 08:55:31;;;;;;;7.90;7.20;;;24.70;99.90;;;;;;5083005;28;20477;-84
2023/09/07 08:58:04;;;;;;;8.33;7.37;;;24.80;99.90;;;;;;5056737;28;20577;-85
2023/09/07 09:00:33;;;;;;;7.13;6.53;;;24.80;99.90;;;;;;5079547;28;20465;-84
2023/09/07 09:03:01;;;;;;;7.17;6.57;;;24.90;99.90;;;;;;5094134;28;20466;-84
2023/09/07 09:05:33;;;;;;;11.17;8.20;;;24.90;99.90;;;;;;5081706;28;20478;-83
2023/09/07 09:08:08;;;;;;;11.67;8.17;;;25.00;99.90;;;;;;5089161;28;20465;-84
2023/09/07 09:10:40;;;;;;;11.53;8.80;;;25.00;99.90;;;;;;5091573;28;20935;-84
2023/09/07 09:13:07;;;;;;;13.43;11.43;;;25.20;99.90;;;;;;5093336;28;20470;-84
2023/09/07 09:15:38;;;;;;;10.77;9.77;;;25.20;99.90;;;;;;5087084;28;20548;-84
2023/09/07 09:18:21;;;;;;;17.33;14.20;;;25.20;99.90;;;;;;5082498;28;20509;-84
2023/09/07 09:20:49;;;;;;;7.03;6.30;;;25.20;99.90;;;;;;5094039;28;20469;-84
2023/09/07 09:23:16;;;;;;;12.10;7.60;;;25.20;99.90;;;;;;5091779;28;20466;-83
2023/09/07 09:25:57;;;;;;;6.37;5.87;;;25.30;99.90;;;;;;5093737;28;20544;-85
2023/09/07 09:28:26;;;;;;;7.57;6.80;;;25.40;99.90;;;;;;5092983;28;20457;-85
2023/09/07 09:30:56;;;;;;;7.70;7.00;;;25.50;99.90;;;;;;5093920;28;20461;-85
2023/09/07 09:33:45;;;;;;;11.03;7.10;;;25.50;99.90;;;;;;5078956;28;20476;-85
2023/09/07 09:36:15;;;;;;;11.20;6.53;;;25.60;99.60;;;;;;5072911;28;20470;-84
2023/09/07 09:38:53;;;;;;;6.20;5.60;;;25.60;99.10;;;;;;5092488;28;20462;-84
2023/09/07 09:41:45;;;;;;;8.13;6.10;;;25.70;98.90;;;;;;5092845;28;20461;-84
2023/09/07 09:44:13;;;;;;;5.87;5.37;;;25.80;98.90;;;;;;5181885;22;20472;-84
2023/09/07 09:46:41;;;;;;;7.73;5.93;;;25.90;99.10;;;;;;5053434;28;20498;-83
2023/09/07 09:49:15;;;;;;;7.80;7.10;;;26.00;98.70;;;;;;5053728;28;20464;-84
2023/09/07 09:52:01;;;;;;;9.17;6.43;;;26.00;98.20;;;;;;5052570;28;20465;-84
2023/09/07 09:54:35;;;;;;;7.73;6.17;;;26.00;97.90;;;;;;5053723;28;20875;-84
2023/09/07 09:57:05;;;;;;;7.73;6.93;;;26.10;98.10;;;;;;5053148;28;20455;-84
2023/09/07 09:59:34;;;;;;;7.63;6.90;;;26.10;98.00;;;;;;5053398;28;20529;-86
2023/09/07 10:02:04;;;;;;;7.03;6.33;;;26.20;98.20;;;;;;5041854;28;20478;-84
2023/09/07 10:04:34;;;;;;;6.27;5.43;;;26.30;97.20;;;;;;5052561;28;20477;-83
2023/09/07 10:07:05;;;;;;;7.30;6.60;;;26.30;97.40;;;;;;5052588;28;20574;-84
2023/09/07 10:09:36;;;;;;;8.03;5.70;;;26.40;97.00;;;;;;5052542;28;20477;-86
2023/09/07 10:12:08;;;;;;;5.73;5.33;;;26.50;96.80;;;;;;5052134;28;20523;-83
2023/09/07 10:14:50;;;;;;;5.80;5.30;;;26.50;96.20;;;;;;5052726;28;20480;-86
2023/09/07 10:17:44;;;;;;;6.50;5.90;;;26.60;96.30;;;;;;5043124;28;20825;-83
2023/09/07 10:20:14;;;;;;;6.30;5.63;;;26.70;95.90;;;;;;5052329;28;20847;-84
2023/09/07 10:22:45;;;;;;;6.03;5.43;;;26.70;95.50;;;;;;5055342;28;20533;-82
2023/09/07 10:28:05;;;;;;;8.73;5.90;;;26.80;94.80;;;;;;5056041;28;20460;-83
2023/09/07 10:30:32;;;;;;;5.47;5.00;;;26.90;94.40;;;;;;5056191;28;20455;-83
2023/09/07 10:33:00;;;;;;;5.67;5.17;;;26.90;93.80;;;;;;5056363;28;20975;-83
2023/09/07 10:35:29;;;;;;;6.27;4.70;;;26.90;93.10;;;;;;5055208;28;20480;-84
2023/09/07 10:38:07;;;;;;;5.60;5.07;;;26.90;92.70;;;;;;5045818;28;20484;-85
2023/09/07 10:40:40;;;;;;;5.87;5.37;;;26.90;92.10;;;;;;5040893;28;20545;-85
2023/09/07 10:43:10;;;;;;;5.37;4.87;;;27.00;92.90;;;;;;5045566;28;20477;-85
2023/09/07 10:45:40;;;;;;;5.63;5.23;;;26.90;92.20;;;;;;5055350;28;20987;-84
2023/09/07 10:48:12;;;;;;;5.70;4.67;;;26.90;92.80;;;;;;5055943;28;20516;-86
2023/09/07 10:50:46;;;;;;;4.20;3.80;;;27.00;92.60;;;;;;5055444;28;20501;-86
2023/09/07 10:53:14;;;;;;;4.93;4.53;;;27.00;92.60;;;;;;5056155;28;20467;-84
2023/09/07 10:55:49;;;;;;;5.67;5.17;;;26.90;92.00;;;;;;5044884;28;20979;-82
2023/09/07 10:58:28;;;;;;;4.73;4.37;;;27.00;91.90;;;;;;5055611;28;20496;-84
2023/09/07 11:01:03;;;;;;;5.83;5.13;;;27.00;91.70;;;;;;5046416;28;20467;-85
2023/09/07 11:03:33;;;;;;;4.67;4.27;;;27.10;91.30;;;;;;5055199;28;20469;-85
2023/09/07 11:06:04;;;;;;;6.70;4.80;;;27.20;91.30;;;;;;5055309;28;20470;-83
2023/09/07 11:08:34;;;;;;;6.73;5.30;;;27.30;90.50;;;;;;5055560;28;20475;-85
2023/09/07 11:11:07;;;;;;;4.60;4.20;;;27.40;90.50;;;;;;5055314;28;20478;-84
2023/09/07 11:13:42;;;;;;;4.80;4.27;;;27.50;89.80;;;;;;5056934;28;20999;-85
2023/09/07 11:16:10;;;;;;;4.20;3.90;;;27.50;89.30;;;;;;5059278;28;20454;-83
2023/09/07 11:18:37;;;;;;;4.70;4.30;;;27.50;88.70;;;;;;5056922;28;20471;-82
2023/09/07 11:21:07;;;;;;;5.27;4.77;;;27.60;89.70;;;;;;5046398;28;20479;-84
2023/09/07 11:23:39;;;;;;;4.90;4.27;;;27.70;90.30;;;;;;5055688;28;20491;-84
2023/09/07 11:26:12;;;;;;;5.37;4.80;;;27.70;90.50;;;;;;5033274;28;20475;-82
2023/09/07 11:28:40;;;;;;;5.40;4.70;;;27.70;90.50;;;;;;5044270;28;20472;-84
2023/09/07 11:31:09;;;;;;;4.93;4.37;;;27.70;90.60;;;;;;5054824;28;20497;-85
2023/09/07 11:33:36;;;;;;;5.13;4.70;;;27.80;90.30;;;;;;5053781;28;20510;-85
2023/09/07 11:36:04;;;;;;;5.57;5.03;;;27.80;90.40;;;;;;5054514;28;20530;-83
2023/09/07 11:38:37;;;;;;;5.13;4.60;;;27.70;89.70;;;;;;5055048;28;20471;-84
2023/09/07 11:41:07;;;;;;;5.07;4.57;;;27.80;89.00;;;;;;5044457;28;20463;-85
2023/09/07 11:43:37;;;;;;;5.10;4.03;;;27.80;89.30;;;;;;5044251;28;20483;-83
2023/09/07 11:46:17;;;;;;;3.90;3.60;;;27.80;87.40;;;;;;5053279;28;20980;-83
2023/09/07 11:49:04;;;;;;;4.57;4.17;;;27.80;87.90;;;;;;5023929;28;20687;-86
2023/09/07 11:51:33;;;;;;;4.63;4.13;;;27.90;86.90;;;;;;5054465;28;20470;-85
2023/09/07 11:54:04;;;;;;;4.93;4.00;;;27.90;86.50;;;;;;5026667;28;20459;-85
2023/09/07 11:56:31;;;;;;;5.17;4.60;;;27.90;86.80;;;;;;5042516;28;20475;-85
2023/09/07 11:59:01;;;;;;;5.67;4.27;;;28.00;86.70;;;;;;5054026;28;20571;-85
2023/09/07 12:02:11;;;;;;;4.67;4.10;;;28.00;85.80;;;;;;5043510;28;20463;-85
2023/09/07 12:04:44;;;;;;;5.10;4.57;;;28.00;86.20;;;;;;5042535;28;20459;-85
2023/09/07 12:07:11;;;;;;;4.97;3.90;;;28.00;86.70;;;;;;5037172;28;20560;-85
2023/09/07 12:09:51;;;;;;;4.73;4.27;;;28.00;86.40;;;;;;5043163;28;20479;-85
2023/09/07 12:12:18;;;;;;;5.60;4.27;;;28.00;85.30;;;;;;5053396;28;20455;-85
2023/09/07 12:14:48;;;;;;;4.90;4.50;;;28.00;85.00;;;;;;5054151;28;20964;-85
2023/09/07 12:17:15;;;;;;;4.70;4.40;;;28.10;84.50;;;;;;5053652;28;20467;-85
2023/09/07 12:19:45;;;;;;;6.63;5.90;;;28.10;84.80;;;;;;5042449;28;20537;-85
2023/09/07 12:22:27;;;;;;;6.33;5.40;;;28.10;84.80;;;;;;5053270;28;20470;-85
2023/09/07 12:25:01;;;;;;;7.80;4.70;;;28.20;85.00;;;;;;5042165;28;20504;-85
2023/09/07 12:27:34;;;;;;;5.83;5.07;;;28.20;85.50;;;;;;5054419;28;20471;-85
2023/09/07 12:30:05;;;;;;;5.77;5.27;;;28.10;85.40;;;;;;5053410;28;20463;-82
2023/09/07 12:33:23;;;;;;;5.80;3.77;;;28.10;84.60;;;;;;5054226;28;20471;-83
2023/09/07 12:39:07;;;;;;;4.90;4.60;;;27.90;85.80;;;;;;5004637;28;20557;-83
2023/09/07 12:42:16;;;;;;;;;;;;;;;;;;;;;
2023/09/07 12:44:43;;;;;;;5.40;5.00;;;27.70;85.90;;;;;;5052581;28;20475;-83
2023/09/07 12:47:10;;;;;;;4.57;4.13;;;27.60;88.20;;;;;;5053048;28;20488;-84
2023/09/07 12:49:39;;;;;;;5.50;5.00;;;27.60;85.30;;;;;;5053942;28;20473;-84
2023/09/07 12:52:08;;;;;;;4.43;4.03;;;27.60;87.40;;;;;;5053298;28;20543;-86
2023/09/07 12:54:37;;;;;;;4.80;4.30;;;27.50;85.60;;;;;;5042637;28;20987;-85
2023/09/07 12:57:10;;;;;;;4.87;4.00;;;27.40;85.40;;;;;;5052436;28;20485;-82
2023/09/07 12:59:59;;;;;;;;;;;;;;;;;;;;;
2023/09/07 13:02:26;;;;;;;4.73;4.33;;;27.50;87.20;;;;;;5053300;28;20466;-83
2023/09/07 13:05:16;;;;;;;4.53;4.13;;;27.40;86.20;;;;;;5039659;28;20471;-83
2023/09/07 13:10:50;;;;;;;5.80;4.70;;;27.50;84.80;;;;;;5005166;28;20547;-85
2023/09/07 13:13:30;;;;;;;;;;;;;;;;;;;;;
2023/09/07 13:15:57;;;;;;;5.57;5.17;;;27.50;85.30;;;;;;5039211;28;20466;-83
2023/09/07 13:18:55;;;;;;;5.60;4.80;;;27.60;85.50;;;;;;5053783;28;20969;-83
2023/09/07 13:21:23;;;;;;;5.80;5.30;;;27.60;86.60;;;;;;5053280;28;20540;-83
2023/09/07 13:23:53;;;;;;;5.23;4.73;;;27.50;86.00;;;;;;5052236;28;20472;-85
2023/09/07 13:26:32;;;;;;;4.67;4.30;;;27.50;87.30;;;;;;5052321;28;20475;-84
2023/09/07 13:28:59;;;;;;;5.10;4.03;;;27.40;86.70;;;;;;5052932;28;21003;-83
2023/09/07 13:31:41;;;;;;;5.23;4.73;;;27.40;86.50;;;;;;5053249;28;20850;-85